sensor_id;sensor_type;location;lat;lon;timestamp;pressure;altitude;pressure_sealevel;temperature;humidity
21760;BME280;11041;50.854;20.580;2023-02-11T00:01:04;100232.47;;;0.36;77.30
21760;BME280;11041;50.854;20.580;2023-02-11T00:03:31;100257.84;;;0.41;77.51
21760;BME280;11041;50.854;20.580;2023-02-11T00:06:04;100260.75;;;0.40;77.59
21760;BME280;11041;50.854;20.580;2023-02-11T00:08:31;100248.28;;;0.32;77.65
21760;BME280;11041;50.854;20.580;2023-02-11T00:10:58;100238.72;;;0.30;77.44
21760;BME280;11041;50.854;20.580;2023-02-11T00:13:25;100259.50;;;0.42;77.06
21760;BME280;11041;50.854;20.580;2023-02-11T00:15:52;100245.97;;;0.36;77.07
21760;BME280;11041;50.854;20.580;2023-02-11T00:18:19;100230.19;;;0.26;77.14
21760;BME280;11041;50.854;20.580;2023-02-11T00:20:46;100246.84;;;0.30;77.50
21760;BME280;11041;50.854;20.580;2023-02-11T00:23:13;100261.19;;;0.24;77.55
21760;BME280;11041;50.854;20.580;2023-02-11T00:25:41;100245.22;;;0.15;78.02
21760;BME280;11041;50.854;20.580;2023-02-11T00:28:09;100227.53;;;0.19;77.55
21760;BME280;11041;50.854;20.580;2023-02-11T00:30:36;100238.94;;;0.28;77.47
21760;BME280;11041;50.854;20.580;2023-02-11T00:33:03;100227.31;;;0.14;77.63
21760;BME280;11041;50.854;20.580;2023-02-11T00:35:29;100224.22;;;0.11;77.66
21760;BME280;11041;50.854;20.580;2023-02-11T00:37:56;100221.31;;;0.12;77.71
21760;BME280;11041;50.854;20.580;2023-02-11T00:40:23;100222.97;;;0.13;77.67
21760;BME280;11041;50.854;20.580;2023-02-11T00:42:50;100225.03;;;0.18;77.88
21760;BME280;11041;50.854;20.580;2023-02-11T00:45:16;100237.72;;;0.11;78.05
21760;BME280;11041;50.854;20.580;2023-02-11T00:47:43;100214.47;;;0.03;77.99
21760;BME280;11041;50.854;20.580;2023-02-11T00:50:09;100217.97;;;0.17;77.88
21760;BME280;11041;50.854;20.580;2023-02-11T00:52:36;100211.72;;;0.16;77.54
21760;BME280;11041;50.854;20.580;2023-02-11T00:55:02;100178.50;;;-0.04;77.61
21760;BME280;11041;50.854;20.580;2023-02-11T00:57:29;100180.34;;;0.09;77.31
21760;BME280;11041;50.854;20.580;2023-02-11T00:59:55;100193.41;;;0.18;77.36
21760;BME280;11041;50.854;20.580;2023-02-11T01:02:22;100178.06;;;0.12;77.73
21760;BME280;11041;50.854;20.580;2023-02-11T01:04:48;100161.22;;;0.04;77.94
21760;BME280;11041;50.854;20.580;2023-02-11T01:07:15;100159.97;;;0.13;77.92
21760;BME280;11041;50.854;20.580;2023-02-11T01:09:41;100165.56;;;0.11;77.97
21760;BME280;11041;50.854;20.580;2023-02-11T01:12:08;100144.19;;;0.03;78.01
21760;BME280;11041;50.854;20.580;2023-02-11T01:14:34;100160.59;;;0.08;77.69
21760;BME280;11041;50.854;20.580;2023-02-11T01:17:02;100145.66;;;-0.01;77.70
21760;BME280;11041;50.854;20.580;2023-02-11T01:19:29;100158.72;;;0.02;77.87
21760;BME280;11041;50.854;20.580;2023-02-11T01:21:55;100152.94;;;-0.02;78.14
21760;BME280;11041;50.854;20.580;2023-02-11T01:24:22;100135.91;;;-0.22;78.14
21760;BME280;11041;50.854;20.580;2023-02-11T01:26:48;100146.09;;;-0.24;78.46
21760;BME280;11041;50.854;20.580;2023-02-11T01:29:15;100143.25;;;-0.36;78.42
21760;BME280;11041;50.854;20.580;2023-02-11T01:31:41;100146.13;;;-0.31;78.80
21760;BME280;11041;50.854;20.580;2023-02-11T01:34:08;100161.28;;;-0.36;78.87
21760;BME280;11041;50.854;20.580;2023-02-11T01:36:34;100144.06;;;-0.49;79.06
21760;BME280;11041;50.854;20.580;2023-02-11T01:39:01;100154.22;;;-0.44;79.41
21760;BME280;11041;50.854;20.580;2023-02-11T01:41:27;100130.78;;;-0.57;79.12
21760;BME280;11041;50.854;20.580;2023-02-11T01:43:54;100130.34;;;-0.60;79.01
21760;BME280;11041;50.854;20.580;2023-02-11T01:46:37;100147.38;;;-0.53;79.37
21760;BME280;11041;50.854;20.580;2023-02-11T01:51:57;100154.44;;;-0.59;80.15
21760;BME280;11041;50.854;20.580;2023-02-11T01:54:35;100124.53;;;-0.77;80.24
21760;BME280;11041;50.854;20.580;2023-02-11T01:57:24;100146.16;;;-0.64;79.97
21760;BME280;11041;50.854;20.580;2023-02-11T02:02:36;100109.38;;;-0.85;80.31
21760;BME280;11041;50.854;20.580;2023-02-11T02:10:44;100089.25;;;-0.96;80.29
21760;BME280;11041;50.854;20.580;2023-02-11T02:13:13;100084.25;;;-0.99;79.97
21760;BME280;11041;50.854;20.580;2023-02-11T02:15:54;100093.00;;;-0.90;80.39
21760;BME280;11041;50.854;20.580;2023-02-11T02:23:06;100071.63;;;-0.98;80.10
21760;BME280;11041;50.854;20.580;2023-02-11T02:28:54;100059.16;;;-0.99;80.57
21760;BME280;11041;50.854;20.580;2023-02-11T02:43:29;100004.59;;;-1.15;80.19
21760;BME280;11041;50.854;20.580;2023-02-11T02:46:24;100016.81;;;-1.19;80.09
21760;BME280;11041;50.854;20.580;2023-02-11T02:48:52;100000.25;;;-1.29;80.35
21760;BME280;11041;50.854;20.580;2023-02-11T02:58:41;99979.72;;;-1.37;80.40
21760;BME280;11041;50.854;20.580;2023-02-11T03:01:40;99978.47;;;-1.34;80.11
21760;BME280;11041;50.854;20.580;2023-02-11T03:07:40;99957.09;;;-1.49;79.57
21760;BME280;11041;50.854;20.580;2023-02-11T03:10:29;99973.66;;;-1.52;79.21
21760;BME280;11041;50.854;20.580;2023-02-11T03:12:57;99973.03;;;-1.54;79.16
21760;BME280;11041;50.854;20.580;2023-02-11T03:15:30;99953.53;;;-1.69;79.34
21760;BME280;11041;50.854;20.580;2023-02-11T03:18:01;99974.31;;;-1.63;79.26
21760;BME280;11041;50.854;20.580;2023-02-11T03:20:32;99948.97;;;-1.82;79.98
21760;BME280;11041;50.854;20.580;2023-02-11T03:23:11;99942.97;;;-1.84;79.79
21760;BME280;11041;50.854;20.580;2023-02-11T03:25:54;99948.97;;;-1.82;79.87
21760;BME280;11041;50.854;20.580;2023-02-11T03:28:38;99941.53;;;-1.80;80.38
21760;BME280;11041;50.854;20.580;2023-02-11T03:31:28;99949.63;;;-1.80;80.13
21760;BME280;11041;50.854;20.580;2023-02-11T03:37:51;99949.19;;;-1.77;80.26
21760;BME280;11041;50.854;20.580;2023-02-11T03:40:31;99926.16;;;-1.86;80.59
21760;BME280;11041;50.854;20.580;2023-02-11T03:43:30;99946.91;;;-1.80;80.42
21760;BME280;11041;50.854;20.580;2023-02-11T03:46:01;99937.56;;;-1.84;80.27
21760;BME280;11041;50.854;20.580;2023-02-11T03:48:58;99956.03;;;-1.75;80.03
21760;BME280;11041;50.854;20.580;2023-02-11T03:51:25;99936.13;;;-1.80;80.74
21760;BME280;11041;50.854;20.580;2023-02-11T03:53:57;99913.94;;;-1.89;80.44
21760;BME280;11041;50.854;20.580;2023-02-11T03:56:33;99903.19;;;-1.82;80.39
21760;BME280;11041;50.854;20.580;2023-02-11T03:59:02;99923.09;;;-1.63;79.62
21760;BME280;11041;50.854;20.580;2023-02-11T04:01:29;99922.88;;;-1.62;80.13
21760;BME280;11041;50.854;20.580;2023-02-11T04:03:56;99919.78;;;-1.59;79.42
21760;BME280;11041;50.854;20.580;2023-02-11T04:06:22;99924.13;;;-1.58;79.68
21760;BME280;11041;50.854;20.580;2023-02-11T04:08:49;99901.09;;;-1.60;79.87
21760;BME280;11041;50.854;20.580;2023-02-11T04:11:15;99901.09;;;-1.60;79.32
21760;BME280;11041;50.854;20.580;2023-02-11T04:13:42;99923.06;;;-1.50;79.31
21760;BME280;11041;50.854;20.580;2023-02-11T04:16:08;99938.22;;;-1.56;80.06
21760;BME280;11041;50.854;20.580;2023-02-11T04:18:35;99975.34;;;-1.51;79.61
21760;BME280;11041;50.854;20.580;2023-02-11T04:21:01;99971.38;;;-1.55;79.63
21760;BME280;11041;50.854;20.580;2023-02-11T04:23:28;99980.53;;;-1.56;80.16
21760;BME280;11041;50.854;20.580;2023-02-11T04:25:54;99971.81;;;-1.58;79.78
21760;BME280;11041;50.854;20.580;2023-02-11T04:28:21;99950.88;;;-1.56;80.16
21760;BME280;11041;50.854;20.580;2023-02-11T04:30:49;99969.94;;;-1.38;79.35
21760;BME280;11041;50.854;20.580;2023-02-11T04:33:16;99932.63;;;-1.47;79.37
21760;BME280;11041;50.854;20.580;2023-02-11T04:35:43;99934.69;;;-1.36;79.15
21760;BME280;11041;50.854;20.580;2023-02-11T04:38:10;99942.34;;;-1.40;79.44
21760;BME280;11041;50.854;20.580;2023-02-11T04:40:37;99914.16;;;-1.44;79.31
21760;BME280;11041;50.854;20.580;2023-02-11T04:43:04;99883.91;;;-1.39;79.18
21760;BME280;11041;50.854;20.580;2023-02-11T04:45:31;99836.81;;;-1.43;79.55
21760;BME280;11041;50.854;20.580;2023-02-11T04:47:57;99779.16;;;-1.42;79.74
21760;BME280;11041;50.854;20.580;2023-02-11T04:50:24;99785.41;;;-1.55;79.52
21760;BME280;11041;50.854;20.580;2023-02-11T04:52:50;99828.34;;;-1.54;79.46
21760;BME280;11041;50.854;20.580;2023-02-11T04:55:17;99842.81;;;-1.41;79.71
21760;BME280;11041;50.854;20.580;2023-02-11T04:57:43;99843.47;;;-1.53;79.86
21760;BME280;11041;50.854;20.580;2023-02-11T05:00:10;99827.47;;;-1.47;80.15
21760;BME280;11041;50.854;20.580;2023-02-11T05:02:37;99817.13;;;-1.57;79.74
21760;BME280;11041;50.854;20.580;2023-02-11T05:05:05;99832.88;;;-1.47;80.29
21760;BME280;11041;50.854;20.580;2023-02-11T05:07:31;99824.59;;;-1.46;80.16
21760;BME280;11041;50.854;20.580;2023-02-11T05:09:58;99827.72;;;-1.49;80.19
21760;BME280;11041;50.854;20.580;2023-02-11T05:12:25;99819.00;;;-1.51;80.19
21760;BME280;11041;50.854;20.580;2023-02-11T05:14:51;99798.06;;;-1.69;80.49
21760;BME280;11041;50.854;20.580;2023-02-11T05:17:18;99820.06;;;-1.59;79.82
21760;BME280;11041;50.854;20.580;2023-02-11T05:19:44;99797.25;;;-1.76;80.49
21760;BME280;11041;50.854;20.580;2023-02-11T05:22:11;99799.75;;;-1.81;80.68
21760;BME280;11041;50.854;20.580;2023-02-11T05:24:37;99792.50;;;-1.81;80.62
21760;BME280;11041;50.854;20.580;2023-02-11T05:27:04;99812.59;;;-1.70;80.35
21760;BME280;11041;50.854;20.580;2023-02-11T05:29:30;99788.78;;;-1.93;80.96
21760;BME280;11041;50.854;20.580;2023-02-11T05:31:58;99789.00;;;-1.95;81.29
21760;BME280;11041;50.854;20.580;2023-02-11T05:34:25;99796.03;;;-1.87;80.63
21760;BME280;11041;50.854;20.580;2023-02-11T05:36:51;99794.16;;;-1.86;80.82
21760;BME280;11041;50.854;20.580;2023-02-11T05:39:17;99775.31;;;-1.93;80.86
21760;BME280;11041;50.854;20.580;2023-02-11T05:41:44;99804.13;;;-1.87;81.79
21760;BME280;11041;50.854;20.580;2023-02-11T05:44:11;99766.41;;;-2.00;82.01
21760;BME280;11041;50.854;20.580;2023-02-11T05:46:37;99778.00;;;-1.93;81.36
21760;BME280;11041;50.854;20.580;2023-02-11T05:49:04;99781.13;;;-1.89;82.05
21760;BME280;11041;50.854;20.580;2023-02-11T05:51:31;99760.00;;;-2.06;81.36
21760;BME280;11041;50.854;20.580;2023-02-11T05:53:57;99791.47;;;-1.86;81.70
21760;BME280;11041;50.854;20.580;2023-02-11T05:56:24;99760.00;;;-1.99;81.34
21760;BME280;11041;50.854;20.580;2023-02-11T05:58:50;99780.06;;;-1.88;81.56
21760;BME280;11041;50.854;20.580;2023-02-11T06:01:17;99771.78;;;-1.94;81.83
21760;BME280;11041;50.854;20.580;2023-02-11T06:03:44;99779.47;;;-1.97;81.59
21760;BME280;11041;50.854;20.580;2023-02-11T06:06:11;99779.03;;;-2.01;81.64
21760;BME280;11041;50.854;20.580;2023-02-11T06:08:38;99798.91;;;-1.95;81.70
21760;BME280;11041;50.854;20.580;2023-02-11T06:11:06;99768.91;;;-2.05;81.58
21760;BME280;11041;50.854;20.580;2023-02-11T06:13:35;99774.06;;;-1.90;81.70
21760;BME280;11041;50.854;20.580;2023-02-11T06:16:02;99758.13;;;-1.92;81.61
21760;BME280;11041;50.854;20.580;2023-02-11T06:18:29;99748.78;;;-1.96;81.24
21760;BME280;11041;50.854;20.580;2023-02-11T06:20:55;99768.28;;;-1.87;81.14
21760;BME280;11041;50.854;20.580;2023-02-11T06:23:22;99775.94;;;-1.91;82.03
21760;BME280;11041;50.854;20.580;2023-02-11T06:25:50;99755.84;;;-2.02;81.58
21760;BME280;11041;50.854;20.580;2023-02-11T06:28:16;99748.16;;;-2.05;81.73
21760;BME280;11041;50.854;20.580;2023-02-11T06:30:43;99770.53;;;-1.91;81.93
21760;BME280;11041;50.854;20.580;2023-02-11T06:33:10;99768.03;;;-1.93;81.47
21760;BME280;11041;50.854;20.580;2023-02-11T06:35:39;99767.03;;;-1.85;81.24
21760;BME280;11041;50.854;20.580;2023-02-11T06:38:06;99764.97;;;-1.89;80.49
21760;BME280;11041;50.854;20.580;2023-02-11T06:40:32;99765.75;;;-1.76;80.79
21760;BME280;11041;50.854;20.580;2023-02-11T06:42:59;99755.81;;;-1.75;80.38
21760;BME280;11041;50.854;20.580;2023-02-11T06:45:25;99754.97;;;-1.76;80.27
21760;BME280;11041;50.854;20.580;2023-02-11T06:47:52;99765.97;;;-1.70;80.06
21760;BME280;11041;50.854;20.580;2023-02-11T06:50:19;99711.47;;;-1.86;80.15
21760;BME280;11041;50.854;20.580;2023-02-11T06:52:46;99720.34;;;-1.72;79.74
21760;BME280;11041;50.854;20.580;2023-02-11T06:55:13;99717.47;;;-1.70;79.11
21760;BME280;11041;50.854;20.580;2023-02-11T06:57:40;99747.88;;;-1.57;79.67
21760;BME280;11041;50.854;20.580;2023-02-11T07:00:07;99731.06;;;-1.52;78.96
21760;BME280;11041;50.854;20.580;2023-02-11T07:02:34;99725.91;;;-1.54;79.87
21760;BME280;11041;50.854;20.580;2023-02-11T07:05:01;99712.25;;;-1.59;79.07
21760;BME280;11041;50.854;20.580;2023-02-11T07:07:28;99734.56;;;-1.38;78.61
21760;BME280;11041;50.854;20.580;2023-02-11T07:09:55;99726.91;;;-1.41;78.80
21760;BME280;11041;50.854;20.580;2023-02-11T07:12:21;99730.59;;;-1.29;77.69
21760;BME280;11041;50.854;20.580;2023-02-11T07:14:48;99720.63;;;-1.35;77.49
21760;BME280;11041;50.854;20.580;2023-02-11T07:17:14;99713.78;;;-1.31;77.58
21760;BME280;11041;50.854;20.580;2023-02-11T07:19:41;99721.25;;;-1.33;78.19
21760;BME280;11041;50.854;20.580;2023-02-11T07:22:07;99693.75;;;-1.48;77.92
21760;BME280;11041;50.854;20.580;2023-02-11T07:24:34;99720.47;;;-1.40;77.94
21760;BME280;11041;50.854;20.580;2023-02-11T07:27:00;99696.56;;;-1.30;77.25
21760;BME280;11041;50.854;20.580;2023-02-11T07:29:27;99659.31;;;-1.46;78.02
21760;BME280;11041;50.854;20.580;2023-02-11T07:31:54;99679.78;;;-1.32;77.46
21760;BME280;11041;50.854;20.580;2023-02-11T07:34:21;99695.72;;;-1.24;77.16
21760;BME280;11041;50.854;20.580;2023-02-11T07:36:47;99679.50;;;-1.17;77.18
21760;BME280;11041;50.854;20.580;2023-02-11T07:39:14;99685.44;;;-1.02;76.11
21760;BME280;11041;50.854;20.580;2023-02-11T07:41:41;99686.88;;;-1.06;76.13
21760;BME280;11041;50.854;20.580;2023-02-11T07:44:09;99700.09;;;-0.91;75.32
21760;BME280;11041;50.854;20.580;2023-02-11T07:46:36;99693.81;;;-0.85;75.08
21760;BME280;11041;50.854;20.580;2023-02-11T07:49:34;99696.50;;;-0.78;75.67
21760;BME280;11041;50.854;20.580;2023-02-11T07:52:01;99678.03;;;-0.81;74.54
21760;BME280;11041;50.854;20.580;2023-02-11T07:54:27;99692.91;;;-0.72;74.45
21760;BME280;11041;50.854;20.580;2023-02-11T07:56:54;99685.53;;;-0.58;73.67
21760;BME280;11041;50.854;20.580;2023-02-11T07:59:22;99664.34;;;-0.55;72.93
21760;BME280;11041;50.854;20.580;2023-02-11T08:01:50;99668.63;;;-0.47;73.72
21760;BME280;11041;50.854;20.580;2023-02-11T08:04:17;99655.84;;;-0.33;72.66
21760;BME280;11041;50.854;20.580;2023-02-11T08:06:43;99687.69;;;-0.17;72.06
21760;BME280;11041;50.854;20.580;2023-02-11T08:09:15;99655.97;;;-0.22;72.46
21760;BME280;11041;50.854;20.580;2023-02-11T08:11:43;99653.16;;;-0.15;71.76
21760;BME280;11041;50.854;20.580;2023-02-11T08:14:11;99679.84;;;0.00;71.95
21760;BME280;11041;50.854;20.580;2023-02-11T08:16:38;99662.13;;;0.04;72.07
21760;BME280;11041;50.854;20.580;2023-02-11T08:19:13;99652.97;;;0.05;72.27
21760;BME280;11041;50.854;20.580;2023-02-11T08:21:40;99625.97;;;0.05;71.72
21760;BME280;11041;50.854;20.580;2023-02-11T08:24:07;99632.94;;;0.13;71.33
21760;BME280;11041;50.854;20.580;2023-02-11T08:26:35;99640.38;;;0.17;70.82
21760;BME280;11041;50.854;20.580;2023-02-11T08:29:09;99634.66;;;0.07;71.86
21760;BME280;11041;50.854;20.580;2023-02-11T08:31:39;99624.59;;;0.14;71.58
21760;BME280;11041;50.854;20.580;2023-02-11T09:18:04;99660.88;;;0.74;71.71
21760;BME280;11041;50.854;20.580;2023-02-11T09:20:32;99650.88;;;0.74;71.79
21760;BME280;11041;50.854;20.580;2023-02-11T09:22:58;99652.75;;;0.74;72.18
21760;BME280;11041;50.854;20.580;2023-02-11T09:25:25;99649.16;;;0.80;71.88
21760;BME280;11041;50.854;20.580;2023-02-11T09:27:52;99643.88;;;0.85;71.99
21760;BME280;11041;50.854;20.580;2023-02-11T09:30:20;99634.38;;;0.94;72.07
21760;BME280;11041;50.854;20.580;2023-02-11T09:32:46;99617.56;;;0.92;71.64
21760;BME280;11041;50.854;20.580;2023-02-11T09:35:13;99645.72;;;1.15;71.92
21760;BME280;11041;50.854;20.580;2023-02-11T09:37:40;99636.66;;;1.09;71.08
21760;BME280;11041;50.854;20.580;2023-02-11T09:40:07;99660.72;;;1.29;71.04
21760;BME280;11041;50.854;20.580;2023-02-11T09:43:12;99657.88;;;1.24;71.66
21760;BME280;11041;50.854;20.580;2023-02-11T09:45:41;99653.53;;;1.23;71.27
21760;BME280;11041;50.854;20.580;2023-02-11T09:48:16;99631.72;;;1.18;71.47
21760;BME280;11041;50.854;20.580;2023-02-11T09:50:54;99634.31;;;1.13;71.63
21760;BME280;11041;50.854;20.580;2023-02-11T09:53:30;99641.41;;;1.25;72.05
21760;BME280;11041;50.854;20.580;2023-02-11T09:56:09;99628.81;;;1.31;72.14
21760;BME280;11041;50.854;20.580;2023-02-11T09:58:41;99633.75;;;1.34;72.45
21760;BME280;11041;50.854;20.580;2023-02-11T10:06:49;99591.25;;;1.35;73.63
21760;BME280;11041;50.854;20.580;2023-02-11T10:09:30;99583.50;;;1.38;73.81
21760;BME280;11041;50.854;20.580;2023-02-11T10:21:42;99531.13;;;1.44;74.87
21760;BME280;11041;50.854;20.580;2023-02-11T10:24:15;99538.16;;;1.45;75.13
21760;BME280;11041;50.854;20.580;2023-02-11T10:26:43;99514.38;;;1.47;75.01
21760;BME280;11041;50.854;20.580;2023-02-11T10:29:26;99525.09;;;1.54;75.10
21760;BME280;11041;50.854;20.580;2023-02-11T10:32:04;99529.91;;;1.64;74.68
21760;BME280;11041;50.854;20.580;2023-02-11T10:37:24;99505.41;;;1.59;75.21
21760;BME280;11041;50.854;20.580;2023-02-11T10:39:51;99508.59;;;1.67;75.17
21760;BME280;11041;50.854;20.580;2023-02-11T10:42:17;99492.94;;;1.58;75.52
21760;BME280;11041;50.854;20.580;2023-02-11T10:45:04;99493.50;;;1.72;75.75
21760;BME280;11041;50.854;20.580;2023-02-11T10:47:37;99495.25;;;1.78;75.58
21760;BME280;11041;50.854;20.580;2023-02-11T10:50:29;99480.38;;;1.80;75.29
21760;BME280;11041;50.854;20.580;2023-02-11T10:53:20;99480.28;;;1.75;75.83
21760;BME280;11041;50.854;20.580;2023-02-11T10:55:54;99500.44;;;1.79;75.63
21760;BME280;11041;50.854;20.580;2023-02-11T11:00:59;99487.13;;;1.78;75.88
21760;BME280;11041;50.854;20.580;2023-02-11T11:03:32;99484.53;;;1.83;75.33
21760;BME280;11041;50.854;20.580;2023-02-11T11:06:05;99479.13;;;1.83;75.33
21760;BME280;11041;50.854;20.580;2023-02-11T11:08:51;99483.09;;;1.80;76.04
21760;BME280;11041;50.854;20.580;2023-02-11T11:11:21;99497.09;;;1.89;76.20
21760;BME280;11041;50.854;20.580;2023-02-11T11:16:26;99479.34;;;1.81;76.66
21760;BME280;11041;50.854;20.580;2023-02-11T11:21:55;99489.00;;;1.77;77.46
21760;BME280;11041;50.854;20.580;2023-02-11T11:24:27;99489.69;;;1.84;77.61
21760;BME280;11041;50.854;20.580;2023-02-11T11:27:01;99488.78;;;1.79;78.77
21760;BME280;11041;50.854;20.580;2023-02-11T11:29:50;99481.47;;;1.79;79.66
21760;BME280;11041;50.854;20.580;2023-02-11T11:32:27;99483.00;;;1.75;79.92
21760;BME280;11041;50.854;20.580;2023-02-11T11:35:03;99476.75;;;1.75;80.06
21760;BME280;11041;50.854;20.580;2023-02-11T11:37:37;99479.97;;;1.72;80.34
21760;BME280;11041;50.854;20.580;2023-02-11T11:40:26;99468.16;;;1.66;80.50
21760;BME280;11041;50.854;20.580;2023-02-11T11:45:39;99475.38;;;1.60;81.30
21760;BME280;11041;50.854;20.580;2023-02-11T11:48:25;99465.84;;;1.58;81.00
21760;BME280;11041;50.854;20.580;2023-02-11T11:51:04;99459.72;;;1.62;80.54
21760;BME280;11041;50.854;20.580;2023-02-11T11:56:22;99473.00;;;1.76;80.08
21760;BME280;11041;50.854;20.580;2023-02-11T11:58:50;99475.94;;;1.74;80.71
21760;BME280;11041;50.854;20.580;2023-02-11T12:10:57;99452.88;;;1.72;81.61
21760;BME280;11041;50.854;20.580;2023-02-11T12:45:52;99358.72;;;1.79;84.04
21760;BME280;11041;50.854;20.580;2023-02-11T12:49:10;99383.47;;;1.70;85.58
21760;BME280;11041;50.854;20.580;2023-02-11T12:55:24;99411.53;;;1.64;87.39
21760;BME280;11041;50.854;20.580;2023-02-11T12:57:55;99405.09;;;1.54;87.59
21760;BME280;11041;50.854;20.580;2023-02-11T13:00:39;99408.38;;;1.56;88.38
21760;BME280;11041;50.854;20.580;2023-02-11T13:03:21;99408.16;;;1.57;88.82
21760;BME280;11041;50.854;20.580;2023-02-11T13:05:58;99417.38;;;1.44;88.52
21760;BME280;11041;50.854;20.580;2023-02-11T13:08:31;99393.31;;;1.48;89.04
21760;BME280;11041;50.854;20.580;2023-02-11T13:11:11;99399.13;;;1.40;89.16
21760;BME280;11041;50.854;20.580;2023-02-11T13:16:45;99427.63;;;1.42;89.28
21760;BME280;11041;50.854;20.580;2023-02-11T13:24:43;99443.03;;;1.42;90.14
21760;BME280;11041;50.854;20.580;2023-02-11T13:27:53;99455.88;;;1.35;90.14
21760;BME280;11041;50.854;20.580;2023-02-11T13:30:33;99436.69;;;1.36;90.46
21760;BME280;11041;50.854;20.580;2023-02-11T13:33:05;99448.22;;;1.43;90.69
21760;BME280;11041;50.854;20.580;2023-02-11T13:38:32;99443.97;;;1.47;91.09
21760;BME280;11041;50.854;20.580;2023-02-11T13:41:06;99423.34;;;1.46;91.55
21760;BME280;11041;50.854;20.580;2023-02-11T13:43:40;99440.66;;;1.57;91.44
21760;BME280;11041;50.854;20.580;2023-02-11T13:46:13;99423.72;;;1.50;91.56
21760;BME280;11041;50.854;20.580;2023-02-11T13:48:52;99423.13;;;1.48;92.25
21760;BME280;11041;50.854;20.580;2023-02-11T13:51:38;99424.03;;;1.54;92.25
21760;BME280;11041;50.854;20.580;2023-02-11T13:54:20;99404.06;;;1.43;92.14
21760;BME280;11041;50.854;20.580;2023-02-11T13:59:57;99432.84;;;1.61;92.30
21760;BME280;11041;50.854;20.580;2023-02-11T14:02:34;99425.59;;;1.49;92.06
21760;BME280;11041;50.854;20.580;2023-02-11T14:05:30;99435.94;;;1.53;92.73
21760;BME280;11041;50.854;20.580;2023-02-11T14:08:21;99431.44;;;1.58;92.70
21760;BME280;11041;50.854;20.580;2023-02-11T14:22:14;99426.97;;;1.64;94.43
21760;BME280;11041;50.854;20.580;2023-02-11T14:24:59;99422.19;;;1.54;94.97
21760;BME280;11041;50.854;20.580;2023-02-11T14:33:19;99421.00;;;1.50;95.51
21760;BME280;11041;50.854;20.580;2023-02-11T14:36:14;99421.34;;;1.42;95.68
21760;BME280;11041;50.854;20.580;2023-02-11T14:39:36;99418.91;;;1.40;96.09
21760;BME280;11041;50.854;20.580;2023-02-11T14:42:17;99420.44;;;1.36;96.39
21760;BME280;11041;50.854;20.580;2023-02-11T14:44:49;99421.41;;;1.30;96.42
21760;BME280;11041;50.854;20.580;2023-02-11T14:47:31;99435.03;;;1.35;96.42
21760;BME280;11041;50.854;20.580;2023-02-11T14:50:02;99419.03;;;1.34;96.81
21760;BME280;11041;50.854;20.580;2023-02-11T14:52:33;99417.94;;;1.35;96.83
21760;BME280;11041;50.854;20.580;2023-02-11T14:55:17;99415.03;;;1.36;96.93
21760;BME280;11041;50.854;20.580;2023-02-11T14:58:18;99419.63;;;1.36;97.26
21760;BME280;11041;50.854;20.580;2023-02-11T15:01:04;99410.09;;;1.33;97.25
21760;BME280;11041;50.854;20.580;2023-02-11T15:08:51;99413.38;;;1.35;97.60
21760;BME280;11041;50.854;20.580;2023-02-11T15:11:23;99392.66;;;1.29;97.77
21760;BME280;11041;50.854;20.580;2023-02-11T15:13:51;99392.53;;;1.36;97.99
21760;BME280;11041;50.854;20.580;2023-02-11T15:16:23;99408.78;;;1.36;97.77
21760;BME280;11041;50.854;20.580;2023-02-11T15:18:55;99417.72;;;1.36;97.86
21760;BME280;11041;50.854;20.580;2023-02-11T15:21:27;99429.16;;;1.38;98.20
21760;BME280;11041;50.854;20.580;2023-02-11T15:24:05;99435.38;;;1.39;98.09
21760;BME280;11041;50.854;20.580;2023-02-11T15:26:33;99438.81;;;1.34;98.33
21760;BME280;11041;50.854;20.580;2023-02-11T15:29:00;99451.28;;;1.35;98.55
21760;BME280;11041;50.854;20.580;2023-02-11T15:31:27;99437.38;;;1.43;98.48
21760;BME280;11041;50.854;20.580;2023-02-11T15:33:54;99433.13;;;1.47;97.97
21760;BME280;11041;50.854;20.580;2023-02-11T15:36:24;99431.63;;;1.40;98.46
21760;BME280;11041;50.854;20.580;2023-02-11T15:39:17;99454.00;;;1.47;98.47
21760;BME280;11041;50.854;20.580;2023-02-11T15:41:43;99444.69;;;1.43;98.49
21760;BME280;11041;50.854;20.580;2023-02-11T15:44:31;99434.78;;;1.37;98.58
21760;BME280;11041;50.854;20.580;2023-02-11T15:46:58;99421.63;;;1.40;98.98
21760;BME280;11041;50.854;20.580;2023-02-11T15:49:26;99434.44;;;1.45;99.24
21760;BME280;11041;50.854;20.580;2023-02-11T15:51:56;99420.91;;;1.33;98.82
21760;BME280;11041;50.854;20.580;2023-02-11T15:54:27;99429.63;;;1.35;99.07
21760;BME280;11041;50.854;20.580;2023-02-11T15:57:03;99429.84;;;1.45;99.19
21760;BME280;11041;50.854;20.580;2023-02-11T15:59:38;99434.19;;;1.46;99.44
21760;BME280;11041;50.854;20.580;2023-02-11T16:02:33;99443.84;;;1.54;99.35
21760;BME280;11041;50.854;20.580;2023-02-11T16:05:08;99439.59;;;1.46;99.28
21760;BME280;11041;50.854;20.580;2023-02-11T16:07:48;99432.16;;;1.54;99.19
21760;BME280;11041;50.854;20.580;2023-02-11T16:10:34;99433.25;;;1.53;99.32
21760;BME280;11041;50.854;20.580;2023-02-11T16:18:03;99446.50;;;1.66;100.00
21760;BME280;11041;50.854;20.580;2023-02-11T16:20:38;99435.09;;;1.64;99.84
21760;BME280;11041;50.854;20.580;2023-02-11T16:23:06;99422.59;;;1.63;99.58
21760;BME280;11041;50.854;20.580;2023-02-11T16:25:36;99422.03;;;1.61;99.88
21760;BME280;11041;50.854;20.580;2023-02-11T16:28:04;99435.34;;;1.62;100.00
21760;BME280;11041;50.854;20.580;2023-02-11T16:30:36;99428.28;;;1.61;100.00
21760;BME280;11041;50.854;20.580;2023-02-11T16:33:04;99438.38;;;1.66;100.00
21760;BME280;11041;50.854;20.580;2023-02-11T16:35:31;99429.53;;;1.70;100.00
21760;BME280;11041;50.854;20.580;2023-02-11T16:37:57;99441.06;;;1.66;100.00
21760;BME280;11041;50.854;20.580;2023-02-11T16:40:24;99441.94;;;1.66;100.00
21760;BME280;11041;50.854;20.580;2023-02-11T16:42:50;99450.66;;;1.68;100.00
21760;BME280;11041;50.854;20.580;2023-02-11T16:45:18;99446.97;;;1.63;100.00